Time;durP1;ratioP1;P1;durP2;ratioP2;P2;SDS_P1;SDS_P2;PMS_P1;PMS_P2;Temp;Humidity;BMP_temperature;BMP_pressure;BME280_temperature;BME280_humidity;BME280_pressure;Samples;Min_cycle;Max_cycle;Signal;HPM_P1;HPM_P2
2021/09/03 00:02:11;;;;;;;6.80;6.20;;;16.30;99.90;;;;;;5058217;28;20403;-82
2021/09/03 00:04:37;;;;;;;10.10;7.90;;;16.20;99.90;;;;;;5058290;28;20188;-82
2021/09/03 00:07:03;;;;;;;6.87;6.17;;;15.70;99.90;;;;;;5057922;28;20172;-83
2021/09/03 00:09:29;;;;;;;13.63;7.47;;;15.90;99.90;;;;;;5038612;28;20197;-83
2021/09/03 00:11:55;;;;;;;9.50;7.50;;;16.10;99.90;;;;;;5038281;28;20419;-83
2021/09/03 00:14:21;;;;;;;10.00;7.73;;;16.00;99.90;;;;;;5038107;28;20553;-84
2021/09/03 00:16:47;;;;;;;9.20;7.90;;;16.00;99.90;;;;;;5038539;28;20532;-83
2021/09/03 00:19:12;;;;;;;11.73;7.40;;;16.20;99.90;;;;;;5038696;28;20400;-83
2021/09/03 00:21:38;;;;;;;8.10;6.70;;;16.20;99.90;;;;;;5038102;28;20169;-84
2021/09/03 00:24:04;;;;;;;8.63;6.90;;;16.20;99.90;;;;;;5040220;28;20161;-83
2021/09/03 00:26:30;;;;;;;9.80;8.80;;;16.20;99.90;;;;;;5042758;28;20231;-83
2021/09/03 00:28:56;;;;;;;8.67;6.93;;;16.30;99.90;;;;;;5040038;28;20203;-83
2021/09/03 00:31:21;;;;;;;9.50;8.10;;;16.30;99.90;;;;;;5042759;28;20403;-83
2021/09/03 00:33:47;;;;;;;10.40;7.70;;;16.30;99.90;;;;;;5043114;28;20590;-84
2021/09/03 00:36:13;;;;;;;9.73;7.30;;;16.30;99.90;;;;;;5042121;28;20196;-83
2021/09/03 00:38:39;;;;;;;8.73;6.70;;;16.30;99.90;;;;;;5042230;28;20164;-83
2021/09/03 00:41:05;;;;;;;8.30;6.90;;;16.30;99.90;;;;;;5041412;28;20528;-83
2021/09/03 00:43:31;;;;;;;7.90;6.80;;;16.20;99.90;;;;;;5041932;28;20167;-83
2021/09/03 00:45:57;;;;;;;7.83;6.83;;;16.10;99.90;;;;;;5041852;28;20191;-83
2021/09/03 00:48:23;;;;;;;11.63;6.90;;;16.20;99.90;;;;;;5053729;28;20403;-83
2021/09/03 00:50:52;;;;;;;8.10;6.73;;;16.20;99.90;;;;;;5057422;28;20856;-82
2021/09/03 00:53:18;;;;;;;12.50;7.40;;;16.20;99.90;;;;;;5057010;28;20475;-83
2021/09/03 00:55:44;;;;;;;8.67;7.90;;;16.10;99.90;;;;;;5046650;28;20414;-84
2021/09/03 00:58:10;;;;;;;8.87;7.87;;;16.10;99.90;;;;;;5042891;28;20403;-84
2021/09/03 01:00:36;;;;;;;9.83;6.80;;;16.10;99.90;;;;;;5043140;28;20395;-84
2021/09/03 01:03:02;;;;;;;10.23;8.20;;;16.00;99.90;;;;;;5042587;28;20165;-84
2021/09/03 01:05:28;;;;;;;8.83;6.80;;;16.00;99.90;;;;;;5041903;28;20165;-83
2021/09/03 01:07:54;;;;;;;8.43;7.20;;;16.00;99.90;;;;;;5042983;28;20590;-83
2021/09/03 01:10:21;;;;;;;9.83;7.50;;;16.00;99.90;;;;;;5044530;28;20196;-83
2021/09/03 01:12:49;;;;;;;13.53;8.20;;;15.90;99.90;;;;;;5041800;28;20391;-84
2021/09/03 01:15:15;;;;;;;9.13;6.97;;;15.90;99.90;;;;;;5041122;28;20881;-84
2021/09/03 01:17:41;;;;;;;10.77;7.47;;;15.90;99.90;;;;;;5041172;28;20490;-83
2021/09/03 01:20:10;;;;;;;10.40;7.83;;;15.90;99.90;;;;;;5041759;28;20415;-83
2021/09/03 01:22:36;;;;;;;9.83;8.50;;;15.90;99.90;;;;;;5024333;28;20232;-84
2021/09/03 01:25:02;;;;;;;9.23;7.73;;;15.90;99.90;;;;;;5041401;28;20412;-83
2021/09/03 01:27:28;;;;;;;8.60;7.80;;;15.80;99.90;;;;;;5041289;28;20480;-83
2021/09/03 01:29:54;;;;;;;13.47;9.13;;;15.80;99.90;;;;;;5041694;28;20856;-84
2021/09/03 01:32:20;;;;;;;16.30;7.70;;;15.80;99.90;;;;;;5041973;28;20165;-83
2021/09/03 01:34:46;;;;;;;10.10;8.93;;;15.80;99.90;;;;;;5041206;28;20404;-83
2021/09/03 01:37:12;;;;;;;19.33;8.57;;;15.90;99.90;;;;;;5041580;28;20499;-83
2021/09/03 01:39:38;;;;;;;13.50;9.30;;;15.80;99.90;;;;;;5040859;28;20513;-84
2021/09/03 01:42:04;;;;;;;11.20;8.30;;;15.70;99.90;;;;;;5041451;28;20164;-83
2021/09/03 01:44:30;;;;;;;9.10;8.20;;;15.70;99.90;;;;;;5040818;28;20411;-84
2021/09/03 01:46:56;;;;;;;10.30;7.70;;;15.70;99.90;;;;;;5041007;28;20407;-83
2021/09/03 01:49:22;;;;;;;9.83;8.83;;;15.70;99.90;;;;;;5040874;28;20848;-83
2021/09/03 01:51:48;;;;;;;13.47;9.30;;;15.70;99.90;;;;;;5040756;28;20403;-83
2021/09/03 01:54:14;;;;;;;11.73;8.50;;;15.60;99.90;;;;;;5039867;28;20176;-83
2021/09/03 01:56:39;;;;;;;12.90;9.87;;;15.60;99.90;;;;;;5040734;28;20195;-83
2021/09/03 01:59:06;;;;;;;9.33;8.40;;;15.60;99.90;;;;;;5041178;28;20168;-83
2021/09/03 02:01:32;;;;;;;17.70;9.70;;;15.60;99.90;;;;;;5041768;28;20165;-83
2021/09/03 02:03:57;;;;;;;11.07;8.67;;;15.60;99.90;;;;;;5041544;28;20403;-84
2021/09/03 02:06:23;;;;;;;12.67;7.90;;;15.50;99.90;;;;;;5040169;28;20615;-83
2021/09/03 02:08:49;;;;;;;10.37;7.63;;;15.50;99.90;;;;;;5039277;28;20196;-83
2021/09/03 02:11:15;;;;;;;12.57;7.40;;;15.40;99.90;;;;;;5040823;28;20336;-83
2021/09/03 02:13:41;;;;;;;10.07;7.50;;;15.50;99.90;;;;;;5040222;28;20550;-83
2021/09/03 02:16:07;;;;;;;10.20;8.63;;;15.40;99.90;;;;;;5040470;28;20455;-83
2021/09/03 02:18:35;;;;;;;10.13;9.03;;;15.50;99.90;;;;;;5040109;28;20541;-84
2021/09/03 02:21:01;;;;;;;10.87;8.37;;;15.50;99.90;;;;;;5046877;28;20169;-82
2021/09/03 02:23:26;;;;;;;12.60;8.17;;;15.40;99.90;;;;;;5055041;28;20404;-83
2021/09/03 02:25:52;;;;;;;9.40;7.37;;;15.40;99.90;;;;;;5053846;28;20399;-82
2021/09/03 02:28:20;;;;;;;15.37;9.30;;;15.50;99.90;;;;;;5043361;28;20214;-83
2021/09/03 02:30:46;;;;;;;14.93;8.03;;;15.40;99.90;;;;;;5040914;28;20161;-84
2021/09/03 02:33:13;;;;;;;9.20;8.20;;;15.40;99.90;;;;;;5023537;28;20406;-84
2021/09/03 02:35:39;;;;;;;12.30;9.10;;;15.40;99.90;;;;;;5040779;28;20681;-84
2021/09/03 02:38:05;;;;;;;12.80;8.57;;;15.40;99.90;;;;;;5039801;28;20419;-83
2021/09/03 02:40:31;;;;;;;8.77;7.73;;;15.40;99.90;;;;;;5039092;28;20256;-83
2021/09/03 02:42:57;;;;;;;11.87;8.90;;;15.40;99.90;;;;;;5040472;28;20892;-84
2021/09/03 02:45:23;;;;;;;11.53;8.57;;;15.30;99.90;;;;;;5038705;28;20169;-83
2021/09/03 02:47:48;;;;;;;11.83;8.80;;;15.30;99.90;;;;;;5039174;28;20524;-83
2021/09/03 02:50:15;;;;;;;10.70;7.80;;;15.40;99.90;;;;;;5039558;28;20487;-83
2021/09/03 02:52:41;;;;;;;11.10;7.03;;;15.30;99.90;;;;;;5039943;28;20220;-83
2021/09/03 02:55:07;;;;;;;11.17;8.83;;;15.30;99.90;;;;;;5039956;28;20841;-83
2021/09/03 02:57:33;;;;;;;11.53;8.80;;;15.30;99.90;;;;;;5039659;28;20237;-83
2021/09/03 02:59:59;;;;;;;10.20;8.50;;;15.30;99.90;;;;;;5040144;28;20475;-83
2021/09/03 03:02:24;;;;;;;14.20;9.73;;;15.30;99.90;;;;;;5039710;28;20505;-84
2021/09/03 03:04:51;;;;;;;8.17;7.23;;;15.30;99.90;;;;;;5040014;28;20251;-84
2021/09/03 03:07:16;;;;;;;11.37;8.10;;;15.20;99.90;;;;;;5040192;28;20165;-83
2021/09/03 03:09:42;;;;;;;10.50;8.17;;;15.20;99.90;;;;;;5038663;28;20462;-83
2021/09/03 03:12:10;;;;;;;12.07;9.80;;;15.20;99.90;;;;;;5039622;28;20591;-83
2021/09/03 03:14:36;;;;;;;11.67;8.90;;;15.20;99.90;;;;;;5043796;28;20220;-83
2021/09/03 03:17:04;;;;;;;10.07;8.73;;;15.20;99.90;;;;;;5043410;28;20516;-83
2021/09/03 03:19:30;;;;;;;14.17;8.97;;;15.20;99.90;;;;;;5038096;28;20872;-83
2021/09/03 03:21:57;;;;;;;10.83;9.30;;;15.20;99.90;;;;;;5039498;28;20391;-83
2021/09/03 03:24:23;;;;;;;11.80;8.50;;;15.10;99.90;;;;;;5021679;28;20391;-83
2021/09/03 03:26:49;;;;;;;13.00;8.40;;;15.00;99.90;;;;;;5038967;28;20396;-84
2021/09/03 03:29:15;;;;;;;20.33;10.33;;;15.00;99.90;;;;;;5039259;28;20405;-84
2021/09/03 03:31:41;;;;;;;11.93;9.60;;;15.10;99.90;;;;;;5021095;28;20431;-83
2021/09/03 03:34:07;;;;;;;14.87;9.00;;;15.10;99.90;;;;;;5039365;28;20169;-83
2021/09/03 03:36:33;;;;;;;10.20;9.10;;;15.10;99.90;;;;;;5039043;28;20451;-83
2021/09/03 03:38:59;;;;;;;11.97;9.20;;;15.00;99.90;;;;;;5039383;28;20168;-83
2021/09/03 03:41:25;;;;;;;12.77;8.10;;;15.00;99.90;;;;;;5039562;28;20399;-84
2021/09/03 03:43:50;;;;;;;11.50;8.90;;;15.00;99.90;;;;;;5040034;28;20157;-83
2021/09/03 03:46:16;;;;;;;13.10;9.03;;;15.00;99.90;;;;;;5021955;28;20584;-83
2021/09/03 03:48:42;;;;;;;11.13;9.30;;;15.00;99.90;;;;;;5039052;28;20180;-83
2021/09/03 03:51:08;;;;;;;15.77;10.27;;;15.00;99.90;;;;;;5038058;28;20184;-83
2021/09/03 03:53:34;;;;;;;14.03;8.33;;;15.00;99.90;;;;;;5022496;28;20197;-83
2021/09/03 03:56:00;;;;;;;10.80;8.80;;;15.00;99.90;;;;;;5042922;28;20176;-81
2021/09/03 03:58:25;;;;;;;17.33;9.80;;;15.00;99.90;;;;;;5041200;28;20184;-83
2021/09/03 04:00:51;;;;;;;12.90;9.63;;;14.90;99.90;;;;;;5038983;28;20489;-83
2021/09/03 04:03:17;;;;;;;15.60;9.57;;;14.90;99.90;;;;;;5036995;28;20408;-83
2021/09/03 04:05:43;;;;;;;12.37;9.73;;;14.90;99.90;;;;;;5036675;28;20167;-84
2021/09/03 04:08:09;;;;;;;16.77;9.63;;;14.80;99.90;;;;;;5036365;28;20259;-84
2021/09/03 04:10:35;;;;;;;13.10;9.23;;;14.80;99.90;;;;;;5036935;28;20535;-83
2021/09/03 04:13:01;;;;;;;10.00;8.07;;;14.80;99.90;;;;;;5035884;28;20387;-84
2021/09/03 04:15:27;;;;;;;11.67;9.20;;;14.80;99.90;;;;;;5035875;28;20901;-83
2021/09/03 04:17:56;;;;;;;11.03;7.73;;;14.80;99.90;;;;;;5037291;28;20196;-83
2021/09/03 04:20:22;;;;;;;13.40;10.30;;;14.80;99.90;;;;;;5021933;28;20177;-83
2021/09/03 04:22:48;;;;;;;14.53;9.70;;;14.70;99.90;;;;;;5039764;28;20434;-83
2021/09/03 04:25:14;;;;;;;10.60;9.40;;;14.70;99.90;;;;;;5038942;28;20402;-83
2021/09/03 04:27:42;;;;;;;13.00;10.27;;;14.70;99.90;;;;;;5039244;28;20161;-83
2021/09/03 04:30:09;;;;;;;11.47;9.73;;;14.70;99.90;;;;;;5038468;28;20442;-83
2021/09/03 04:32:36;;;;;;;10.77;8.87;;;14.70;99.90;;;;;;5020835;28;20404;-83
2021/09/03 04:35:01;;;;;;;12.23;8.77;;;14.70;99.90;;;;;;5037950;28;20400;-83
2021/09/03 04:37:27;;;;;;;14.80;8.67;;;14.60;99.90;;;;;;5038233;28;20445;-83
2021/09/03 04:39:53;;;;;;;10.27;8.80;;;14.60;99.90;;;;;;5038662;28;20518;-83
2021/09/03 04:42:19;;;;;;;9.97;8.20;;;14.60;99.90;;;;;;5037603;28;20165;-83
2021/09/03 04:44:45;;;;;;;11.50;8.77;;;14.60;99.90;;;;;;5038993;28;20248;-83
2021/09/03 04:47:11;;;;;;;14.50;10.63;;;14.60;99.90;;;;;;5038827;28;20189;-83
2021/09/03 04:49:36;;;;;;;11.20;8.97;;;14.60;99.90;;;;;;5039001;28;20176;-83
2021/09/03 04:52:02;;;;;;;12.27;9.73;;;14.60;99.90;;;;;;5039153;28;20772;-83
2021/09/03 04:54:28;;;;;;;12.17;7.67;;;14.60;99.90;;;;;;5039069;28;20252;-83
2021/09/03 04:56:54;;;;;;;13.30;9.60;;;14.60;99.90;;;;;;5038432;28;20986;-83
2021/09/03 04:59:20;;;;;;;13.03;9.20;;;14.60;99.90;;;;;;5039092;28;20168;-83
2021/09/03 05:01:45;;;;;;;14.60;9.43;;;14.60;99.90;;;;;;5043177;28;20158;-83
2021/09/03 05:04:15;;;;;;;16.10;10.80;;;14.60;99.90;;;;;;5038660;28;20157;-83
2021/09/03 05:06:43;;;;;;;13.13;9.00;;;14.60;99.90;;;;;;4980568;28;20633;-83
2021/09/03 05:09:09;;;;;;;10.50;9.10;;;14.60;99.90;;;;;;4997114;28;20437;-84
2021/09/03 05:11:35;;;;;;;11.63;9.30;;;14.50;99.90;;;;;;5000374;28;20201;-83
2021/09/03 05:14:01;;;;;;;12.30;9.00;;;14.60;99.90;;;;;;5000713;28;20217;-83
2021/09/03 05:16:26;;;;;;;9.87;8.40;;;14.60;99.90;;;;;;4999622;28;20268;-83
2021/09/03 05:18:54;;;;;;;12.40;9.63;;;14.60;99.90;;;;;;4999756;28;20217;-83
2021/09/03 05:21:20;;;;;;;12.20;9.37;;;14.70;99.90;;;;;;4999424;28;20178;-83
2021/09/03 05:23:46;;;;;;;13.23;9.40;;;14.70;99.90;;;;;;4999948;28;20459;-83
2021/09/03 05:26:11;;;;;;;9.50;8.00;;;14.70;99.90;;;;;;4999925;28;20213;-83
2021/09/03 05:28:38;;;;;;;13.30;8.77;;;14.70;99.90;;;;;;5000311;28;20169;-83
2021/09/03 05:31:04;;;;;;;9.73;8.57;;;14.70;99.90;;;;;;4983191;28;20534;-83
2021/09/03 05:33:30;;;;;;;13.00;9.87;;;14.70;99.90;;;;;;4999040;28;20432;-83
2021/09/03 05:35:56;;;;;;;11.00;9.00;;;14.80;99.90;;;;;;4999969;28;20204;-84
2021/09/03 05:38:21;;;;;;;18.10;9.53;;;14.80;99.90;;;;;;5032896;28;20657;-84
2021/09/03 05:40:48;;;;;;;13.40;9.50;;;14.80;99.90;;;;;;5041431;28;20161;-83
2021/09/03 05:43:20;;;;;;;13.73;10.27;;;14.80;99.90;;;;;;5020342;28;20184;-84
2021/09/03 05:45:46;;;;;;;14.13;10.60;;;14.80;99.90;;;;;;5022388;28;20396;-84
2021/09/03 05:48:15;;;;;;;16.80;9.83;;;14.80;99.90;;;;;;5024235;28;20420;-86
2021/09/03 05:50:41;;;;;;;10.00;7.90;;;14.90;99.90;;;;;;5046286;28;20419;-81
2021/09/03 05:53:06;;;;;;;15.20;11.97;;;14.90;99.90;;;;;;5038301;28;20177;-82
2021/09/03 05:55:32;;;;;;;10.20;9.10;;;15.00;99.90;;;;;;5057342;28;20168;-82
2021/09/03 05:57:59;;;;;;;10.77;8.53;;;15.10;99.90;;;;;;5056516;28;20267;-82
2021/09/03 06:00:25;;;;;;;11.97;8.17;;;15.10;99.90;;;;;;5055086;28;20731;-82
2021/09/03 06:02:51;;;;;;;11.03;9.27;;;15.20;99.90;;;;;;5042999;28;20404;-82
2021/09/03 06:05:18;;;;;;;12.00;7.67;;;15.30;99.90;;;;;;5041091;28;20408;-82
2021/09/03 06:07:43;;;;;;;11.60;8.33;;;15.30;99.90;;;;;;5022405;28;20892;-82
2021/09/03 06:10:11;;;;;;;12.37;8.30;;;15.30;99.90;;;;;;5040487;28;20503;-83
2021/09/03 06:12:37;;;;;;;9.50;8.03;;;15.40;99.90;;;;;;5023554;28;20634;-83
2021/09/03 06:15:05;;;;;;;10.37;8.30;;;15.30;99.90;;;;;;5039752;28;20578;-83
2021/09/03 06:17:31;;;;;;;10.73;9.10;;;15.30;99.90;;;;;;5039961;28;20466;-83
2021/09/03 06:19:56;;;;;;;9.67;7.77;;;15.40;99.90;;;;;;5023452;28;20498;-84
2021/09/03 06:22:22;;;;;;;12.03;7.83;;;15.30;99.90;;;;;;5040196;28;20180;-84
2021/09/03 06:24:48;;;;;;;15.20;10.67;;;15.30;99.90;;;;;;5043323;28;20248;-83
2021/09/03 06:27:14;;;;;;;10.60;9.50;;;15.40;99.90;;;;;;5052126;28;20196;-84
2021/09/03 06:29:41;;;;;;;13.33;10.00;;;15.50;99.90;;;;;;5049073;28;20260;-83
2021/09/03 06:32:10;;;;;;;12.70;9.43;;;15.50;99.90;;;;;;5012447;28;20220;-83
2021/09/03 06:34:38;;;;;;;15.23;10.60;;;15.60;99.90;;;;;;5019991;28;20448;-83
2021/09/03 06:37:04;;;;;;;13.10;9.30;;;15.70;99.90;;;;;;5032925;28;21022;-84
2021/09/03 06:39:30;;;;;;;10.37;7.00;;;15.70;99.90;;;;;;5040348;28;20775;-84
2021/09/03 06:41:56;;;;;;;12.63;7.87;;;15.80;99.90;;;;;;5043333;28;20396;-84
2021/09/03 06:44:22;;;;;;;12.37;9.07;;;15.90;99.90;;;;;;5045224;28;20970;-84
2021/09/03 06:46:47;;;;;;;13.67;9.83;;;15.90;99.90;;;;;;5046144;28;20188;-84
2021/09/03 06:49:13;;;;;;;11.90;8.20;;;16.00;99.90;;;;;;5043067;28;20173;-84
2021/09/03 06:51:39;;;;;;;13.47;8.47;;;16.10;99.90;;;;;;5040449;28;20647;-84
2021/09/03 06:54:05;;;;;;;11.57;8.27;;;16.20;99.90;;;;;;5023914;28;20179;-84
2021/09/03 06:56:31;;;;;;;10.63;9.00;;;16.20;99.90;;;;;;5041432;28;20665;-84
2021/09/03 06:58:59;;;;;;;15.53;7.63;;;16.30;99.90;;;;;;5025299;28;20256;-84
2021/09/03 07:01:24;;;;;;;14.33;8.83;;;16.40;99.90;;;;;;5048169;28;20173;-83
2021/09/03 07:03:50;;;;;;;12.63;9.50;;;16.40;99.90;;;;;;5050352;28;20546;-83
2021/09/03 07:06:16;;;;;;;14.50;8.67;;;16.40;99.90;;;;;;5016180;28;20201;-84
2021/09/03 07:08:42;;;;;;;11.10;8.20;;;16.40;99.90;;;;;;5047481;28;20208;-84
2021/09/03 07:11:07;;;;;;;16.43;10.20;;;16.40;99.90;;;;;;5029128;28;20179;-84
2021/09/03 07:13:35;;;;;;;9.00;7.43;;;16.50;99.90;;;;;;5039651;28;20204;-84
2021/09/03 07:16:01;;;;;;;11.07;9.50;;;16.60;99.90;;;;;;5013482;28;20240;-84
2021/09/03 07:18:27;;;;;;;12.63;7.97;;;16.50;99.90;;;;;;5024801;28;20444;-84
2021/09/03 07:21:13;;;;;;;9.40;8.43;;;16.70;99.90;;;;;;5002827;28;21918;-84
2021/09/03 07:23:38;;;;;;;19.20;8.60;;;16.80;99.90;;;;;;5008519;28;20523;-84
2021/09/03 07:26:04;;;;;;;8.13;6.87;;;16.80;99.90;;;;;;5018052;28;20185;-84
2021/09/03 07:28:30;;;;;;;13.37;8.33;;;16.90;99.90;;;;;;5017036;28;20185;-84
2021/09/03 07:30:56;;;;;;;9.27;7.93;;;17.00;99.90;;;;;;5017649;28;20641;-84
2021/09/03 07:33:22;;;;;;;11.53;8.50;;;17.10;99.90;;;;;;4997544;28;20201;-83
2021/09/03 07:35:48;;;;;;;12.13;8.37;;;17.20;99.90;;;;;;5006684;28;20256;-84
2021/09/03 07:38:15;;;;;;;9.83;8.50;;;17.20;99.90;;;;;;5017856;28;20161;-83
2021/09/03 07:40:41;;;;;;;8.40;7.37;;;17.20;99.90;;;;;;5016391;28;20441;-83
2021/09/03 07:43:07;;;;;;;10.63;7.70;;;17.30;99.90;;;;;;5016508;28;20540;-85
2021/09/03 07:45:36;;;;;;;8.17;7.37;;;17.40;99.90;;;;;;5018069;28;20392;-83
2021/09/03 07:48:04;;;;;;;10.00;7.70;;;17.30;99.90;;;;;;5016953;28;20438;-85
2021/09/03 07:50:32;;;;;;;12.63;8.03;;;17.40;99.90;;;;;;5016904;28;20408;-83
2021/09/03 07:52:59;;;;;;;11.37;7.87;;;17.60;99.90;;;;;;5026625;28;20443;-85
2021/09/03 07:55:25;;;;;;;14.83;7.03;;;17.70;99.90;;;;;;5019756;28;20440;-85
2021/09/03 07:57:51;;;;;;;7.47;6.67;;;17.80;99.90;;;;;;5033512;28;20467;-85
2021/09/03 08:00:17;;;;;;;9.90;8.27;;;17.80;99.90;;;;;;5034575;28;20172;-85
2021/09/03 08:02:43;;;;;;;7.30;6.43;;;17.90;99.90;;;;;;5038957;28;20461;-85
2021/09/03 08:05:10;;;;;;;10.87;7.70;;;18.00;99.90;;;;;;5037508;28;20435;-84
2021/09/03 08:07:36;;;;;;;9.87;7.20;;;18.10;99.90;;;;;;4997308;28;20440;-85
2021/09/03 08:10:03;;;;;;;9.73;7.53;;;18.10;99.90;;;;;;4978690;28;20474;-84
2021/09/03 08:12:39;;;;;;;6.90;6.23;;;18.20;99.90;;;;;;5001093;28;20213;-85
2021/09/03 08:15:09;;;;;;;7.67;6.83;;;18.40;99.90;;;;;;5005269;28;20532;-84
2021/09/03 08:17:35;;;;;;;8.70;7.07;;;18.40;99.90;;;;;;5012142;28;20564;-85
2021/09/03 08:20:04;;;;;;;8.77;7.03;;;18.50;99.90;;;;;;4998140;28;20429;-83
2021/09/03 08:22:30;;;;;;;17.27;7.47;;;18.50;99.90;;;;;;4997539;28;20493;-83
2021/09/03 08:24:56;;;;;;;7.57;6.70;;;18.60;99.90;;;;;;4997581;28;20505;-84
2021/09/03 08:27:22;;;;;;;12.23;7.07;;;18.70;99.90;;;;;;4962110;28;20446;-84
2021/09/03 08:29:48;;;;;;;9.53;6.60;;;18.80;99.90;;;;;;4979400;28;20190;-84
2021/09/03 08:32:15;;;;;;;8.50;7.70;;;18.80;99.90;;;;;;4979612;28;20194;-83
2021/09/03 08:34:41;;;;;;;12.70;6.20;;;18.80;99.90;;;;;;4985313;28;20425;-83
2021/09/03 08:37:07;;;;;;;9.70;6.93;;;19.00;99.90;;;;;;4967717;28;20486;-84
2021/09/03 08:39:33;;;;;;;8.90;6.57;;;19.10;99.90;;;;;;4965783;28;20485;-85
2021/09/03 08:42:01;;;;;;;7.60;5.27;;;19.20;99.90;;;;;;4985929;28;20414;-85
2021/09/03 08:44:34;;;;;;;7.57;6.10;;;19.30;99.90;;;;;;4986964;28;20182;-85
2021/09/03 08:46:59;;;;;;;8.83;5.87;;;19.40;99.90;;;;;;5001408;28;20448;-85
2021/09/03 08:49:26;;;;;;;13.40;5.93;;;19.50;99.90;;;;;;4968926;28;20424;-85
2021/09/03 08:51:53;;;;;;;8.17;6.87;;;19.50;99.90;;;;;;4999383;28;20185;-85
2021/09/03 08:54:20;;;;;;;13.60;6.27;;;19.70;99.90;;;;;;4985198;28;20433;-85
2021/09/03 08:56:46;;;;;;;6.07;5.47;;;19.80;99.90;;;;;;5000828;28;20465;-85
2021/09/03 08:59:12;;;;;;;11.50;6.93;;;20.00;99.90;;;;;;5002015;28;20429;-85
2021/09/03 09:01:38;;;;;;;8.13;5.90;;;20.20;99.90;;;;;;5000924;28;20440;-85
2021/09/03 09:04:14;;;;;;;5.60;5.10;;;20.30;99.90;;;;;;5002327;28;20427;-85
2021/09/03 09:07:00;;;;;;;5.57;5.00;;;20.40;99.90;;;;;;5001965;28;20606;-84
2021/09/03 09:09:33;;;;;;;6.40;5.80;;;20.70;99.90;;;;;;5000832;28;20514;-83
2021/09/03 09:12:10;;;;;;;6.47;5.77;;;20.90;99.90;;;;;;5001892;28;20480;-84
2021/09/03 09:15:09;;;;;;;11.97;5.63;;;21.10;99.90;;;;;;5020532;28;20470;-84
2021/09/03 09:17:39;;;;;;;6.10;5.30;;;21.20;99.90;;;;;;5036297;28;20509;-84
2021/09/03 09:20:09;;;;;;;9.73;5.30;;;21.40;99.90;;;;;;5040627;28;20447;-84
2021/09/03 09:22:53;;;;;;;6.00;4.70;;;21.50;99.90;;;;;;5036888;28;20504;-84
2021/09/03 09:25:22;;;;;;;7.30;5.37;;;21.60;99.90;;;;;;5044597;28;20439;-85
2021/09/03 09:27:50;;;;;;;5.70;4.00;;;21.10;99.90;;;;;;5033697;28;20439;-85
2021/09/03 09:30:24;;;;;;;5.77;5.20;;;21.60;99.90;;;;;;5015542;28;20475;-85
2021/09/03 09:33:12;;;;;;;10.30;5.00;;;21.10;99.90;;;;;;5043592;28;20443;-85
2021/09/03 09:35:54;;;;;;;6.17;5.50;;;21.70;99.90;;;;;;5042625;28;20447;-85
2021/09/03 09:38:27;;;;;;;6.70;3.90;;;21.80;99.90;;;;;;5043151;28;20396;-85
2021/09/03 09:40:56;;;;;;;5.50;4.13;;;21.40;99.90;;;;;;5042120;28;20875;-85
2021/09/03 09:43:28;;;;;;;5.70;4.30;;;21.40;99.90;;;;;;5042656;28;20613;-85
2021/09/03 09:46:10;;;;;;;5.27;4.77;;;21.80;99.90;;;;;;5024161;28;20958;-85
2021/09/03 09:48:57;;;;;;;7.10;4.90;;;22.00;99.90;;;;;;5024822;28;20419;-84
2021/09/03 09:51:25;;;;;;;7.53;4.87;;;22.20;99.90;;;;;;5041519;28;20499;-85
2021/09/03 09:53:57;;;;;;;6.47;5.03;;;22.70;99.90;;;;;;5041349;28;20451;-85
2021/09/03 09:56:24;;;;;;;4.80;4.30;;;23.00;99.90;;;;;;5042266;28;20459;-85
2021/09/03 09:59:02;;;;;;;7.43;4.50;;;22.60;99.90;;;;;;5024502;28;20419;-84
2021/09/03 10:01:29;;;;;;;5.13;3.70;;;22.60;99.90;;;;;;5022191;28;20432;-84
2021/09/03 10:03:56;;;;;;;5.33;4.50;;;22.90;99.90;;;;;;5038830;28;20449;-84
2021/09/03 10:06:25;;;;;;;5.43;4.63;;;23.50;99.90;;;;;;5023926;28;20450;-83
2021/09/03 10:08:54;;;;;;;7.60;5.37;;;24.00;99.90;;;;;;5039283;28;20466;-84
2021/09/03 10:11:20;;;;;;;5.50;4.80;;;24.40;99.90;;;;;;5040687;28;20450;-85
2021/09/03 10:13:47;;;;;;;5.57;4.50;;;24.50;99.90;;;;;;5041266;28;20399;-85
2021/09/03 10:16:14;;;;;;;6.07;3.87;;;24.60;99.90;;;;;;5038520;28;20459;-85
2021/09/03 10:18:43;;;;;;;4.27;3.87;;;24.50;99.90;;;;;;5024303;28;20442;-84
2021/09/03 10:21:11;;;;;;;4.50;4.20;;;24.70;99.90;;;;;;5022149;28;20408;-85
2021/09/03 10:23:50;;;;;;;5.90;4.57;;;25.10;99.90;;;;;;5022601;28;20413;-85
2021/09/03 10:26:20;;;;;;;5.23;4.30;;;25.40;99.90;;;;;;5021993;28;20435;-84
2021/09/03 10:28:46;;;;;;;5.97;4.70;;;25.20;99.90;;;;;;5022062;28;20464;-85
2021/09/03 10:31:18;;;;;;;4.63;3.97;;;25.50;99.90;;;;;;5021259;28;20407;-85
2021/09/03 10:33:47;;;;;;;7.40;4.70;;;25.90;99.90;;;;;;5022388;28;20420;-84
2021/09/03 10:36:13;;;;;;;5.60;4.47;;;25.90;99.90;;;;;;5021463;28;20458;-84
2021/09/03 10:38:43;;;;;;;5.30;4.90;;;26.40;99.90;;;;;;5021265;28;20407;-85
2021/09/03 10:41:45;;;;;;;5.77;5.17;;;26.50;99.90;;;;;;5021148;28;20439;-84
2021/09/03 10:44:11;;;;;;;5.63;4.97;;;27.10;99.90;;;;;;5026243;28;20426;-85
2021/09/03 10:46:43;;;;;;;5.20;4.37;;;27.40;99.90;;;;;;5040574;28;20429;-85
2021/09/03 10:49:08;;;;;;;6.50;4.53;;;27.80;99.90;;;;;;5040815;28;20553;-85
2021/09/03 10:51:37;;;;;;;5.70;5.20;;;28.00;99.90;;;;;;5019402;28;20431;-85
2021/09/03 10:54:19;;;;;;;4.73;4.10;;;28.10;99.90;;;;;;5021970;28;20168;-85
2021/09/03 10:56:55;;;;;;;4.50;4.07;;;27.50;99.90;;;;;;5021409;28;20443;-85
2021/09/03 10:59:20;;;;;;;5.53;4.73;;;27.70;99.90;;;;;;5021469;28;20458;-85
2021/09/03 11:01:56;;;;;;;5.10;4.70;;;28.20;99.90;;;;;;5003909;28;20395;-85
2021/09/03 11:04:24;;;;;;;5.17;4.63;;;27.00;99.90;;;;;;5004680;28;20598;-85
2021/09/03 11:07:04;;;;;;;5.53;4.40;;;26.70;99.90;;;;;;5022343;28;20400;-84
2021/09/03 11:09:31;;;;;;;5.13;4.73;;;27.60;99.90;;;;;;5020980;28;20482;-85
2021/09/03 11:12:05;;;;;;;7.50;5.33;;;26.50;99.90;;;;;;4987222;28;20954;-85
2021/09/03 11:14:34;;;;;;;5.00;4.50;;;26.70;99.90;;;;;;5031319;28;20489;-85
2021/09/03 11:17:04;;;;;;;5.57;5.10;;;26.70;99.90;;;;;;5034241;28;20824;-85
2021/09/03 11:19:35;;;;;;;5.60;4.87;;;26.90;99.90;;;;;;5025788;28;20168;-84
2021/09/03 11:22:17;;;;;;;9.03;5.47;;;28.30;99.50;;;;;;5022434;28;20446;-84
2021/09/03 11:24:53;;;;;;;6.43;5.38;;;28.80;98.00;;;;;;5026593;28;20259;-84
2021/09/03 11:27:23;;;;;;;4.85;4.30;;;29.30;96.50;;;;;;5023211;28;20254;-84
2021/09/03 11:29:56;;;;;;;4.88;4.47;;;29.50;96.70;;;;;;5041691;28;20671;-84
2021/09/03 11:32:24;;;;;;;4.82;4.43;;;30.20;94.90;;;;;;5018407;28;20206;-84
2021/09/03 11:34:59;;;;;;;5.07;4.57;;;30.40;92.60;;;;;;5055725;28;20152;-85
2021/09/03 11:37:36;;;;;;;5.22;4.72;;;31.00;92.60;;;;;;5056395;28;20271;-85
2021/09/03 11:40:10;;;;;;;4.60;4.18;;;31.50;90.70;;;;;;5055803;28;20215;-85
2021/09/03 11:42:41;;;;;;;4.60;4.25;;;31.30;90.50;;;;;;5045004;28;20172;-84
2021/09/03 11:45:17;;;;;;;5.88;4.68;;;31.60;84.50;;;;;;5010083;28;20176;-85
2021/09/03 11:47:49;;;;;;;5.32;4.38;;;31.70;83.60;;;;;;5043242;28;20152;-85
2021/09/03 11:50:18;;;;;;;5.45;4.05;;;32.00;81.50;;;;;;5041690;28;20164;-86
2021/09/03 11:52:45;;;;;;;5.85;5.35;;;31.70;79.80;;;;;;5042923;28;20196;-85
2021/09/03 11:55:17;;;;;;;10.27;4.93;;;31.70;80.40;;;;;;5023896;28;20259;-85
2021/09/03 11:57:57;;;;;;;5.28;4.78;;;31.40;79.30;;;;;;5041729;28;20188;-85
2021/09/03 12:00:28;;;;;;;5.00;4.40;;;32.20;78.10;;;;;;5042275;28;20160;-85
2021/09/03 12:02:56;;;;;;;5.35;4.85;;;31.40;77.10;;;;;;5010559;28;20187;-85
2021/09/03 12:05:22;;;;;;;4.43;4.00;;;29.60;78.30;;;;;;5042058;28;20263;-87
2021/09/03 12:08:08;;;;;;;4.18;3.80;;;28.50;77.60;;;;;;5024663;28;20168;-85
2021/09/03 12:10:55;;;;;;;4.10;3.80;;;28.70;77.60;;;;;;5020656;28;20223;-85
2021/09/03 12:13:25;;;;;;;6.07;4.32;;;28.60;80.20;;;;;;5019710;28;20264;-85
2021/09/03 12:16:07;;;;;;;4.57;4.10;;;27.90;81.20;;;;;;5019935;28;20212;-84
2021/09/03 12:18:36;;;;;;;4.05;3.75;;;27.10;83.70;;;;;;5021384;28;20161;-85
2021/09/03 12:21:17;;;;;;;4.93;4.32;;;26.90;82.70;;;;;;5020801;28;20200;-85
2021/09/03 12:23:47;;;;;;;6.70;4.07;;;26.50;82.30;;;;;;5023268;28;20165;-85
2021/09/03 12:26:16;;;;;;;4.13;3.33;;;27.40;82.10;;;;;;5015425;28;20183;-84
2021/09/03 12:28:44;;;;;;;4.13;3.83;;;29.70;77.40;;;;;;5022009;28;20168;-85
2021/09/03 12:31:13;;;;;;;4.88;3.88;;;28.70;75.70;;;;;;5035934;28;20641;-85
2021/09/03 12:33:57;;;;;;;4.72;3.58;;;29.10;76.70;;;;;;5037167;28;20183;-85
2021/09/03 12:36:26;;;;;;;4.18;3.88;;;29.50;77.00;;;;;;5042041;28;20168;-85
2021/09/03 12:38:56;;;;;;;4.28;3.97;;;30.80;74.40;;;;;;5041883;28;20173;-85
2021/09/03 12:41:29;;;;;;;4.70;4.30;;;30.30;72.30;;;;;;5041448;28;20564;-84
2021/09/03 12:44:02;;;;;;;4.90;4.47;;;30.30;74.40;;;;;;5006443;28;20648;-84
2021/09/03 12:46:52;;;;;;;4.82;4.43;;;30.00;75.00;;;;;;5041210;28;20187;-84